createdAt,value
2023-04-13T00:01:09.386Z,8.23
2023-04-13T00:03:36.327Z,15.10
2023-04-13T00:06:03.396Z,6.53
2023-04-13T00:08:30.787Z,14.23
2023-04-13T00:10:57.459Z,9.40
2023-04-13T00:13:26.822Z,3.93
2023-04-13T00:15:53.917Z,7.53
2023-04-13T00:18:20.837Z,8.00
2023-04-13T00:20:50.433Z,11.17
2023-04-13T00:23:19.601Z,14.90
2023-04-13T00:25:50.045Z,5.07
2023-04-13T00:28:19.900Z,4.27
2023-04-13T00:30:49.955Z,4.53
2023-04-13T00:33:17.525Z,11.47
2023-04-13T00:35:44.242Z,4.60
2023-04-13T00:38:11.610Z,5.90
2023-04-13T00:40:38.063Z,10.07
2023-04-13T00:43:05.699Z,4.20
2023-04-13T00:45:38.940Z,6.77
2023-04-13T00:48:09.744Z,6.72
2023-04-13T00:50:36.974Z,4.25
2023-04-13T00:53:06.850Z,6.93
2023-04-13T00:55:40.413Z,6.10
2023-04-13T00:58:07.898Z,8.93
2023-04-13T01:00:38.975Z,4.93
2023-04-13T01:03:05.600Z,7.17
2023-04-13T01:06:04.121Z,10.97
2023-04-13T01:08:36.965Z,1.13
2023-04-13T01:11:25.142Z,10.43
2023-04-13T01:14:07.900Z,7.00
2023-04-13T01:16:49.590Z,4.90
2023-04-13T01:19:32.581Z,7.90
2023-04-13T01:22:00.995Z,6.83
2023-04-13T01:24:40.702Z,15.97
2023-04-13T01:27:07.144Z,7.30
2023-04-13T01:29:36.272Z,6.83
2023-04-13T01:32:03.210Z,12.77
2023-04-13T01:34:30.053Z,3.43
2023-04-13T01:36:57.156Z,6.17
2023-04-13T01:39:25.654Z,4.53
2023-04-13T01:41:52.074Z,3.40
2023-04-13T01:44:18.605Z,11.87
2023-04-13T01:46:51.663Z,12.57
2023-04-13T01:49:22.925Z,9.83
2023-04-13T01:51:54.536Z,9.73
2023-04-13T01:54:25.665Z,12.83
2023-04-13T01:56:53.087Z,5.93
2023-04-13T01:59:21.037Z,7.07
2023-04-13T02:01:47.604Z,5.07
2023-04-13T02:04:14.630Z,6.17
2023-04-13T02:06:42.290Z,9.70
2023-04-13T02:09:09.211Z,3.93
2023-04-13T02:11:36.717Z,5.93
2023-04-13T02:14:04.012Z,7.93
2023-04-13T02:16:30.750Z,9.37
2023-04-13T02:18:58.388Z,9.80
2023-04-13T02:21:25.842Z,8.70
2023-04-13T02:23:55.502Z,3.30
2023-04-13T02:26:26.223Z,10.00
2023-04-13T02:28:53.411Z,4.63
2023-04-13T02:31:20.680Z,5.00
2023-04-13T02:33:47.820Z,10.60
2023-04-13T02:36:17.312Z,9.23
2023-04-13T02:38:44.080Z,2.50
2023-04-13T02:41:10.897Z,5.60
2023-04-13T02:43:37.371Z,5.00
2023-04-13T02:46:04.379Z,12.37
2023-04-13T02:48:30.864Z,5.10
2023-04-13T02:50:57.340Z,1.50
2023-04-13T02:53:27.398Z,6.73
2023-04-13T02:55:58.482Z,7.77
2023-04-13T02:58:25.396Z,6.47
2023-04-13T03:00:52.071Z,9.67
2023-04-13T03:03:20.487Z,10.57
2023-04-13T03:05:49.570Z,3.73
2023-04-13T03:08:17.370Z,3.80
2023-04-13T03:10:44.935Z,9.07
2023-04-13T03:13:11.493Z,16.37
2023-04-13T03:15:38.009Z,6.13
2023-04-13T03:18:04.551Z,5.10
2023-04-13T03:20:31.195Z,10.20
2023-04-13T03:22:58.775Z,9.07
2023-04-13T03:25:26.061Z,11.43
2023-04-13T03:27:52.516Z,3.50
2023-04-13T03:30:19.096Z,7.47
2023-04-13T03:32:45.663Z,4.83
2023-04-13T03:35:12.199Z,9.33
2023-04-13T03:37:42.961Z,14.67
2023-04-13T03:40:12.981Z,4.97
2023-04-13T03:42:39.509Z,5.97
2023-04-13T03:45:06.646Z,1.83
2023-04-13T03:47:33.493Z,12.43
2023-04-13T03:50:00.105Z,2.53
2023-04-13T03:52:31.147Z,6.37
2023-04-13T03:55:01.911Z,7.13
2023-04-13T03:57:29.174Z,8.73
2023-04-13T03:59:59.219Z,5.37
2023-04-13T04:02:28.564Z,5.57
2023-04-13T04:04:55.136Z,1.63
2023-04-13T04:07:23.756Z,2.77
2023-04-13T04:09:50.447Z,3.20
2023-04-13T04:12:17.072Z,3.57
2023-04-13T04:14:43.515Z,4.87
2023-04-13T04:17:09.930Z,5.17
2023-04-13T04:19:37.120Z,13.23
2023-04-13T04:22:04.208Z,6.13
2023-04-13T04:24:30.667Z,5.47
2023-04-13T04:27:02.669Z,8.13
2023-04-13T04:29:34.768Z,4.43
2023-04-13T04:32:03.273Z,6.07
2023-04-13T04:34:31.647Z,11.67
2023-04-13T04:37:03.249Z,6.90
2023-04-13T04:39:35.272Z,2.97
2023-04-13T04:42:04.579Z,3.77
2023-04-13T04:44:31.272Z,7.13
2023-04-13T04:47:00.544Z,13.23
2023-04-13T04:49:29.566Z,7.57
2023-04-13T04:51:58.330Z,6.87
2023-04-13T04:54:26.028Z,4.70
2023-04-13T04:56:53.586Z,0.60
2023-04-13T04:59:20.096Z,7.87
2023-04-13T05:01:47.167Z,7.97
2023-04-13T05:04:13.955Z,7.97
2023-04-13T05:06:42.097Z,6.57
2023-04-13T05:09:09.048Z,9.87
2023-04-13T05:11:36.434Z,5.87
2023-04-13T05:14:03.106Z,9.33
2023-04-13T05:16:34.413Z,3.77
2023-04-13T05:19:01.752Z,8.30
2023-04-13T05:21:32.065Z,3.43
2023-04-13T05:24:01.612Z,4.33
2023-04-13T05:26:32.457Z,8.40
2023-04-13T05:29:03.100Z,5.07
2023-04-13T05:31:30.562Z,3.03
2023-04-13T05:33:57.016Z,7.03
2023-04-13T05:36:23.451Z,5.07
2023-04-13T05:38:50.118Z,6.03
2023-04-13T05:41:16.602Z,6.27
2023-04-13T05:43:44.416Z,7.37
2023-04-13T05:46:11.627Z,7.83
2023-04-13T05:48:38.561Z,11.50
2023-04-13T05:51:05.881Z,11.40
2023-04-13T05:53:32.402Z,4.43
2023-04-13T05:56:03.133Z,8.83
2023-04-13T05:58:31.574Z,13.20
2023-04-13T06:01:00.136Z,5.47
2023-04-13T06:03:27.569Z,11.27
2023-04-13T06:05:54.866Z,4.73
2023-04-13T06:08:21.696Z,5.53
2023-04-13T06:10:48.978Z,6.00
2023-04-13T06:13:15.676Z,7.67
2023-04-13T06:15:42.297Z,6.93
2023-04-13T06:18:08.798Z,8.37
2023-04-13T06:20:35.956Z,7.40
2023-04-13T06:23:02.436Z,6.73
2023-04-13T06:25:31.808Z,7.87
2023-04-13T06:28:01.900Z,6.23
2023-04-13T06:30:33.533Z,10.93
2023-04-13T06:33:00.646Z,12.00
2023-04-13T06:35:27.260Z,6.90
2023-04-13T06:37:54.310Z,6.20
2023-04-13T06:40:22.987Z,4.77
2023-04-13T06:42:49.423Z,12.67
2023-04-13T06:45:16.240Z,8.20
2023-04-13T06:47:43.576Z,4.40
2023-04-13T06:50:13.837Z,3.40
2023-04-13T06:52:43.468Z,5.50
2023-04-13T06:55:10.133Z,3.50
2023-04-13T06:57:36.629Z,8.65
2023-04-13T07:00:12.624Z,7.57
2023-04-13T07:02:48.983Z,7.15
2023-04-13T07:05:15.895Z,2.38
2023-04-13T07:07:42.440Z,4.25
2023-04-13T07:10:09.357Z,8.32
2023-04-13T07:12:36.075Z,3.03
2023-04-13T07:15:02.627Z,15.27
2023-04-13T07:17:33.776Z,9.07
2023-04-13T07:20:04.492Z,4.47
2023-04-13T07:22:35.518Z,10.52
2023-04-13T07:25:02.343Z,8.55
2023-04-13T07:27:33.905Z,7.88
2023-04-13T07:30:01.640Z,6.80
2023-04-13T07:32:31.324Z,6.18
2023-04-13T07:35:01.620Z,7.63
2023-04-13T07:37:31.727Z,4.20
2023-04-13T07:39:58.773Z,5.78
2023-04-13T07:42:25.387Z,7.10
2023-04-13T07:44:55.934Z,12.05
2023-04-13T07:47:22.502Z,14.30
2023-04-13T07:49:49.090Z,4.82
2023-04-13T07:52:15.747Z,9.00
2023-04-13T07:54:42.287Z,6.90
2023-04-13T07:57:08.733Z,8.60
2023-04-13T07:59:35.288Z,5.25
2023-04-13T08:02:01.921Z,4.80
2023-04-13T08:04:30.101Z,13.65
2023-04-13T08:06:57.169Z,8.90
2023-04-13T08:09:23.595Z,16.80
2023-04-13T08:11:50.202Z,7.28
2023-04-13T08:14:16.726Z,14.25
2023-04-13T08:16:43.436Z,10.70
2023-04-13T08:19:09.998Z,10.13
2023-04-13T08:21:38.621Z,5.45
2023-04-13T08:24:05.546Z,9.30
2023-04-13T08:26:32.144Z,12.85
2023-04-13T08:29:00.733Z,11.05
2023-04-13T08:31:29.171Z,10.95
2023-04-13T08:33:57.604Z,13.10
2023-04-13T08:36:24.545Z,11.77
2023-04-13T08:38:51.036Z,12.13
2023-04-13T08:41:17.817Z,8.50
2023-04-13T08:43:46.840Z,11.63
2023-04-13T08:46:19.417Z,10.15
2023-04-13T08:48:54.175Z,6.57
2023-04-13T08:51:22.436Z,4.80
2023-04-13T08:53:49.309Z,11.93
2023-04-13T08:56:16.662Z,8.63
2023-04-13T08:58:45.179Z,9.20
2023-04-13T09:01:13.614Z,8.82
2023-04-13T09:04:10.624Z,8.48
2023-04-13T09:06:41.385Z,4.78
2023-04-13T09:09:15.833Z,6.57
2023-04-13T09:11:43.364Z,7.35
2023-04-13T09:14:10.322Z,8.60
2023-04-13T09:16:41.541Z,6.90
2023-04-13T09:19:08.725Z,16.45
2023-04-13T09:21:40.910Z,6.65
2023-04-13T09:24:08.449Z,10.23
2023-04-13T09:26:46.412Z,11.57
2023-04-13T09:29:15.030Z,11.55
2023-04-13T09:31:43.716Z,9.85
2023-04-13T09:34:12.021Z,8.75
2023-04-13T09:36:49.498Z,5.30
2023-04-13T09:39:30.544Z,10.02
2023-04-13T09:42:00.061Z,11.48
2023-04-13T09:44:34.867Z,9.50
2023-04-13T09:47:06.086Z,14.45
2023-04-13T09:49:40.227Z,12.27
2023-04-13T09:52:18.115Z,11.45
2023-04-13T09:54:49.350Z,6.97
2023-04-13T09:57:26.338Z,11.20
2023-04-13T09:59:55.709Z,5.82
2023-04-13T10:02:22.520Z,9.77
2023-04-13T10:04:49.703Z,8.30
2023-04-13T10:07:16.414Z,13.20
2023-04-13T10:09:45.771Z,7.25
2023-04-13T10:12:14.706Z,6.35
2023-04-13T10:14:44.189Z,4.57
2023-04-13T10:17:24.084Z,5.30
2023-04-13T10:19:53.110Z,4.22
2023-04-13T10:22:22.869Z,3.90
2023-04-13T10:24:52.639Z,3.55
2023-04-13T10:27:20.969Z,3.15
2023-04-13T10:29:47.988Z,5.00
2023-04-13T10:32:26.720Z,3.10
2023-04-13T10:34:54.732Z,3.33
2023-04-13T10:37:37.118Z,1.70
2023-04-13T10:40:06.348Z,7.55
2023-04-13T10:45:26.621Z,1.65
2023-04-13T10:47:54.502Z,8.75
2023-04-13T10:50:22.813Z,4.53
2023-04-13T10:53:05.527Z,6.07
2023-04-13T10:55:33.059Z,3.63
2023-04-13T10:58:01.795Z,4.28
2023-04-13T11:00:45.537Z,4.72
2023-04-13T11:03:17.630Z,3.83
2023-04-13T11:05:57.826Z,4.03
2023-04-13T11:08:24.664Z,5.78
2023-04-13T11:10:53.190Z,8.52
2023-04-13T11:13:20.456Z,13.85
2023-04-13T11:15:48.235Z,2.80
2023-04-13T11:18:25.686Z,2.70
2023-04-13T11:20:52.449Z,5.53
2023-04-13T11:23:20.028Z,6.50
2023-04-13T11:26:04.839Z,5.85
2023-04-13T11:28:42.447Z,2.80
2023-04-13T11:31:09.341Z,3.20
2023-04-13T11:33:37.886Z,2.75
2023-04-13T11:36:07.771Z,2.85
2023-04-13T11:38:34.394Z,2.25
2023-04-13T11:41:15.894Z,7.00
2023-04-13T11:43:46.148Z,4.90
2023-04-13T11:46:15.227Z,4.85
2023-04-13T11:48:42.420Z,5.38
2023-04-13T11:51:09.877Z,7.38
2023-04-13T11:53:38.720Z,2.63
2023-04-13T11:56:06.186Z,5.22
2023-04-13T11:58:37.365Z,1.88
2023-04-13T12:01:13.802Z,4.90
2023-04-13T12:03:53.435Z,3.42
2023-04-13T12:06:29.008Z,4.80
2023-04-13T12:09:09.774Z,3.33
2023-04-13T12:11:42.382Z,3.40
2023-04-13T12:19:24.094Z,2.10
2023-04-13T12:21:57.466Z,5.38
2023-04-13T12:24:37.634Z,0.85
2023-04-13T12:29:41.010Z,6.20
2023-04-13T12:32:14.240Z,5.50
2023-04-13T12:34:41.836Z,4.10
2023-04-13T12:37:08.279Z,7.28
2023-04-13T12:39:34.744Z,5.80
2023-04-13T12:42:02.739Z,6.00
2023-04-13T12:44:30.387Z,3.55
2023-04-13T12:46:59.079Z,11.07
2023-04-13T12:49:25.917Z,7.00
2023-04-13T12:51:52.370Z,3.40
2023-04-13T12:54:18.852Z,2.45
2023-04-13T12:56:45.275Z,2.55
2023-04-13T12:59:11.729Z,8.75
2023-04-13T13:01:38.420Z,1.95
2023-04-13T13:04:06.116Z,2.53
2023-04-13T13:06:34.626Z,3.70
2023-04-13T13:09:01.367Z,3.67
2023-04-13T13:11:28.430Z,4.65
2023-04-13T13:13:55.174Z,4.40
2023-04-13T13:16:21.873Z,2.90
2023-04-13T13:18:51.348Z,5.03
2023-04-13T13:21:18.725Z,2.92
2023-04-13T13:23:45.692Z,3.17
2023-04-13T13:28:42.465Z,1.67
2023-04-13T13:31:09.098Z,1.40
2023-04-13T13:33:36.320Z,4.32
2023-04-13T13:36:02.838Z,6.90
2023-04-13T13:38:29.442Z,1.08
2023-04-13T13:40:56.038Z,1.42
2023-04-13T13:43:22.595Z,1.58
2023-04-13T13:45:49.210Z,0.35
2023-04-13T13:48:15.885Z,1.85
2023-04-13T13:50:42.464Z,0.75
2023-04-13T13:53:09.074Z,2.75
2023-04-13T13:55:38.496Z,4.15
2023-04-13T13:58:07.514Z,5.07
2023-04-13T14:00:35.681Z,0.63
2023-04-13T14:03:02.252Z,3.53
2023-04-13T14:05:28.850Z,1.83
2023-04-13T14:07:55.367Z,1.02
2023-04-13T14:10:21.860Z,1.98
2023-04-13T14:12:50.550Z,1.80
2023-04-13T14:15:17.873Z,0.80
2023-04-13T14:17:50.193Z,2.33
2023-04-13T14:20:22.322Z,2.97
2023-04-13T14:22:48.782Z,0.90
2023-04-13T14:25:15.328Z,1.75
2023-04-13T14:27:41.769Z,1.60
2023-04-13T14:30:09.345Z,4.07
2023-04-13T14:32:35.890Z,0.38
2023-04-13T14:35:03.022Z,0.82
2023-04-13T14:37:29.539Z,5.35
2023-04-13T14:39:56.084Z,0.43
2023-04-13T14:42:24.545Z,4.20
2023-04-13T14:44:51.858Z,1.58
2023-04-13T14:47:19.621Z,2.97
2023-04-13T14:49:47.429Z,3.75
2023-04-13T14:52:15.137Z,0.30
2023-04-13T14:54:41.913Z,1.83
2023-04-13T14:57:09.408Z,2.78
2023-04-13T14:59:35.964Z,1.90
2023-04-13T15:02:02.539Z,2.00
2023-04-13T15:04:29.710Z,1.10
2023-04-13T15:06:56.350Z,1.80
2023-04-13T15:09:22.872Z,3.72
2023-04-13T15:11:49.431Z,1.70
2023-04-13T15:14:16.335Z,1.20
2023-04-13T15:16:42.967Z,5.60
2023-04-13T15:19:09.509Z,0.90
2023-04-13T15:21:36.218Z,8.38
2023-04-13T15:24:02.777Z,3.13
2023-04-13T15:26:29.745Z,2.05
2023-04-13T15:28:56.172Z,1.40
2023-04-13T15:31:22.795Z,6.30
2023-04-13T15:33:49.300Z,5.18
2023-04-13T15:36:16.141Z,1.45
2023-04-13T15:38:43.190Z,1.58
2023-04-13T15:41:13.719Z,2.28
2023-04-13T15:43:41.502Z,1.88
2023-04-13T15:46:09.035Z,2.30
2023-04-13T15:48:35.734Z,2.75
2023-04-13T15:51:02.331Z,2.70
2023-04-13T15:53:29.058Z,1.33
2023-04-13T15:55:55.739Z,0.35
2023-04-13T15:58:22.359Z,0.95
2023-04-13T16:01:10.125Z,3.40
2023-04-13T16:03:37.755Z,0.73
2023-04-13T16:06:04.617Z,1.48
2023-04-13T16:08:31.359Z,0.40
2023-04-13T16:10:58.088Z,1.27
2023-04-13T16:13:41.524Z,0.60
2023-04-13T16:16:15.065Z,1.55
2023-04-13T16:18:44.274Z,3.10
2023-04-13T16:21:10.997Z,1.08
2023-04-13T16:23:38.100Z,1.33
2023-04-13T16:26:05.038Z,0.32
2023-04-13T16:28:31.698Z,0.77
2023-04-13T16:30:58.646Z,1.08
2023-04-13T16:34:24.411Z,1.05
2023-04-13T16:36:55.013Z,0.63
2023-04-13T16:39:41.334Z,0.70
2023-04-13T16:42:07.916Z,1.95
2023-04-13T16:44:34.411Z,0.90
2023-04-13T16:47:01.069Z,0.98
2023-04-13T16:49:27.910Z,0.63
2023-04-13T16:51:54.353Z,1.65
2023-04-13T16:54:21.139Z,0.63
2023-04-13T16:56:47.777Z,2.63
2023-04-13T16:59:17.462Z,0.90
2023-04-13T17:01:46.757Z,4.80
2023-04-13T17:04:15.771Z,4.78
2023-04-13T17:10:25.887Z,1.35
2023-04-13T17:12:52.697Z,6.13
2023-04-13T17:15:20.094Z,1.55
2023-04-13T17:17:52.793Z,2.50
2023-04-13T17:20:19.524Z,2.45
2023-04-13T17:23:08.683Z,0.95
2023-04-13T17:25:40.908Z,1.98
2023-04-13T17:28:07.668Z,1.25
2023-04-13T17:30:34.152Z,3.08
2023-04-13T17:33:00.645Z,2.20
2023-04-13T17:35:27.159Z,2.67
2023-04-13T17:38:49.066Z,1.75
2023-04-13T17:41:17.491Z,2.83
2023-04-13T17:43:54.330Z,3.17
2023-04-13T17:46:21.146Z,3.05
2023-04-13T17:48:48.845Z,2.80
2023-04-13T17:51:49.315Z,1.63
2023-04-13T17:54:20.145Z,0.77
2023-04-13T17:56:50.232Z,1.20
2023-04-13T18:00:05.182Z,1.52
2023-04-13T18:02:31.857Z,0.75
2023-04-13T18:05:21.428Z,5.53
2023-04-13T18:08:20.620Z,1.60
2023-04-13T18:10:49.697Z,1.10
2023-04-13T18:13:18.982Z,1.23
2023-04-13T18:15:49.077Z,4.68
2023-04-13T18:18:24.467Z,2.63
2023-04-13T18:20:52.172Z,1.95
2023-04-13T18:23:21.813Z,4.25
2023-04-13T18:25:52.636Z,2.35
2023-04-13T18:28:20.610Z,3.80
2023-04-13T18:30:47.238Z,8.23
2023-04-13T18:33:13.765Z,3.15
2023-04-13T18:35:45.545Z,2.90
2023-04-13T18:38:12.555Z,3.83
2023-04-13T18:40:43.359Z,3.05
2023-04-13T18:43:09.831Z,3.08
2023-04-13T18:45:36.283Z,3.22
2023-04-13T18:48:25.943Z,0.90
2023-04-13T18:50:52.502Z,1.83
2023-04-13T18:53:19.720Z,1.13
2023-04-13T18:55:51.709Z,3.70
2023-04-13T18:58:22.176Z,2.80
2023-04-13T19:00:48.773Z,3.78
2023-04-13T19:03:15.688Z,1.05
2023-04-13T19:05:42.301Z,0.75
2023-04-13T19:08:10.412Z,2.67
2023-04-13T19:11:00.364Z,5.53
2023-04-13T19:13:26.894Z,2.70
2023-04-13T19:15:56.973Z,4.75
2023-04-13T19:18:24.978Z,2.25
2023-04-13T19:21:00.545Z,5.25
2023-04-13T19:23:40.141Z,6.00
2023-04-13T19:26:07.196Z,2.80
2023-04-13T19:28:33.697Z,0.77
2023-04-13T19:31:00.232Z,0.50
2023-04-13T19:33:26.711Z,0.50
2023-04-13T19:35:53.183Z,0.98
2023-04-13T19:38:21.141Z,0.52
2023-04-13T19:40:47.657Z,0.30
2023-04-13T19:43:23.689Z,0.63
2023-04-13T19:45:52.701Z,0.32
2023-04-13T19:48:19.160Z,0.40
2023-04-13T19:50:45.595Z,0.35
2023-04-13T19:53:12.176Z,0.30
2023-04-13T19:55:38.657Z,0.30
2023-04-13T19:58:05.209Z,0.40
2023-04-13T20:00:32.104Z,0.30
2023-04-13T20:03:03.272Z,0.40
2023-04-13T20:05:32.684Z,0.45
2023-04-13T20:07:59.275Z,0.30
2023-04-13T20:10:25.804Z,0.30
2023-04-13T20:12:55.300Z,0.30
2023-04-13T20:15:23.131Z,0.32
2023-04-13T20:17:51.877Z,0.30
2023-04-13T20:20:20.598Z,0.30
2023-04-13T20:22:48.472Z,1.80
2023-04-13T20:25:14.947Z,0.30
2023-04-13T20:27:42.317Z,0.70
2023-04-13T20:30:10.066Z,0.32
2023-04-13T20:32:36.530Z,1.75
2023-04-13T20:35:03.120Z,0.43
2023-04-13T20:37:29.550Z,0.85
2023-04-13T20:39:57.397Z,0.40
2023-04-13T20:42:24.178Z,0.47
2023-04-13T20:44:57.778Z,0.40
2023-04-13T20:47:28.609Z,0.50
2023-04-13T20:49:57.343Z,0.65
2023-04-13T20:52:25.883Z,1.27
2023-04-13T20:54:54.603Z,0.98
2023-04-13T20:57:21.593Z,0.30
2023-04-13T20:59:49.023Z,0.88
2023-04-13T21:02:15.876Z,1.10
2023-04-13T21:04:42.624Z,1.65
2023-04-13T21:07:12.914Z,0.75
2023-04-13T21:09:39.927Z,1.95
2023-04-13T21:12:06.716Z,0.60
2023-04-13T21:14:33.626Z,0.73
2023-04-13T21:17:00.048Z,0.70
2023-04-13T21:19:27.663Z,0.57
2023-04-13T21:21:57.341Z,1.02
2023-04-13T21:24:26.092Z,0.93
2023-04-13T21:26:52.552Z,0.40
2023-04-13T21:29:20.106Z,0.60
2023-04-13T21:31:47.636Z,0.30
2023-04-13T21:34:14.130Z,4.47
2023-04-13T21:39:13.509Z,0.50
2023-04-13T21:41:41.417Z,1.08
2023-04-13T21:44:16.197Z,1.77
2023-04-13T21:46:52.863Z,2.15
2023-04-13T21:49:19.424Z,1.90
2023-04-13T21:51:45.996Z,1.85
2023-04-13T21:54:12.440Z,2.65
2023-04-13T21:56:38.891Z,1.58
2023-04-13T21:59:05.463Z,3.25
2023-04-13T22:01:31.928Z,1.73
2023-04-13T22:03:58.676Z,2.67
2023-04-13T22:06:27.770Z,2.45
2023-04-13T22:08:54.978Z,1.00
2023-04-13T22:11:21.537Z,1.95
2023-04-13T22:13:48.005Z,0.93
2023-04-13T22:16:14.712Z,0.70
2023-04-13T22:18:41.751Z,2.15
2023-04-13T22:21:08.252Z,0.75
2023-04-13T22:23:34.713Z,1.17
2023-04-13T22:26:01.626Z,2.28
2023-04-13T22:28:31.865Z,0.50
2023-04-13T22:31:08.601Z,0.57
2023-04-13T22:33:40.362Z,1.38
2023-04-13T22:36:16.504Z,1.25
2023-04-13T22:38:42.961Z,0.95
2023-04-13T22:41:09.807Z,0.50
2023-04-13T22:43:36.301Z,0.40
2023-04-13T22:46:03.102Z,0.67
2023-04-13T22:48:32.946Z,0.37
2023-04-13T22:51:03.668Z,0.70
2023-04-13T22:53:31.201Z,0.53
2023-04-13T22:55:57.830Z,0.30
2023-04-13T22:58:24.366Z,0.40
2023-04-13T23:00:51.091Z,1.90
2023-04-13T23:03:17.909Z,0.57
2023-04-13T23:05:44.604Z,0.50
2023-04-13T23:08:11.499Z,0.50
2023-04-13T23:10:37.931Z,0.40
2023-04-13T23:13:04.766Z,1.17
2023-04-13T23:15:31.665Z,3.93
2023-04-13T23:18:01.771Z,0.40
2023-04-13T23:20:28.463Z,0.60
2023-04-13T23:22:55.903Z,0.67
2023-04-13T23:25:22.398Z,0.30
2023-04-13T23:27:48.850Z,0.93
2023-04-13T23:30:16.210Z,0.40
2023-04-13T23:32:42.793Z,0.55
2023-04-13T23:35:09.514Z,0.40
2023-04-13T23:37:35.970Z,0.67
2023-04-13T23:40:06.142Z,0.60
2023-04-13T23:42:35.172Z,1.70
2023-04-13T23:45:05.816Z,0.60
2023-04-13T23:47:36.004Z,0.30
2023-04-13T23:50:04.555Z,0.40
2023-04-13T23:52:31.965Z,0.45
2023-04-13T23:54:58.480Z,1.08
2023-04-13T23:57:24.932Z,2.28
2023-04-13T23:59:57.554Z,0.40
